Time;durP1;ratioP1;P1;durP2;ratioP2;P2;SDS_P1;SDS_P2;PMS_P1;PMS_P2;Temp;Humidity;BMP_temperature;BMP_pressure;BME280_temperature;BME280_humidity;BME280_pressure;Samples;Min_cycle;Max_cycle;Signal;HPM_P1;HPM_P2
2023/04/02 00:02:24;;;;;;;1.00;0.60;;;;;;;11.92;56.19;96663.34;5041748;28;20821;-69
2023/04/02 00:05:17;;;;;;;1.33;0.60;;;;;;;11.84;56.29;96666.81;5043199;28;20456;-69
2023/04/02 00:07:43;;;;;;;1.37;0.60;;;;;;;11.77;56.26;96671.13;5054384;28;20429;-71
2023/04/02 00:10:32;;;;;;;5.63;0.70;;;;;;;11.77;56.30;96671.94;5053484;28;21161;-72
2023/04/02 00:13:09;;;;;;;0.90;0.70;;;;;;;11.81;56.36;96677.66;5051728;28;20440;-71
2023/04/02 00:15:40;;;;;;;1.87;0.70;;;;;;;11.73;56.59;96672.47;5047267;28;20468;-71
2023/04/02 00:18:06;;;;;;;1.10;0.80;;;;;;;11.68;56.81;96675.59;4989073;28;20445;-71
2023/04/02 00:20:35;;;;;;;1.00;0.70;;;;;;;11.70;56.47;96678.88;5059131;28;20430;-70
2023/04/02 00:23:01;;;;;;;1.50;1.03;;;;;;;11.69;56.73;96679.88;5015250;28;20295;-69
2023/04/02 00:25:29;;;;;;;1.00;0.80;;;;;;;11.71;56.80;96683.16;5048114;28;20970;-69
2023/04/02 00:27:55;;;;;;;2.57;0.80;;;;;;;11.57;56.88;96676.81;5057131;28;20425;-69
2023/04/02 00:30:20;;;;;;;0.93;0.70;;;;;;;11.63;56.69;96685.78;5044399;28;20963;-70
2023/04/02 00:32:46;;;;;;;1.00;0.70;;;;;;;11.58;56.96;96685.50;5040604;28;20454;-70
2023/04/02 00:35:18;;;;;;;1.67;0.80;;;;;;;11.65;57.06;96689.91;5047858;28;20207;-71
2023/04/02 00:37:44;;;;;;;2.53;0.80;;;;;;;11.67;56.75;96687.09;5031634;28;20487;-71
2023/04/02 00:40:18;;;;;;;1.10;0.70;;;;;;;11.67;56.85;96692.34;5052719;28;20437;-70
2023/04/02 00:42:45;;;;;;;1.27;0.73;;;;;;;11.77;56.75;96697.41;5031851;28;20244;-71
2023/04/02 00:45:27;;;;;;;2.37;0.77;;;;;;;11.80;56.83;96694.41;5052865;28;20524;-71
2023/04/02 00:47:53;;;;;;;1.10;0.70;;;;;;;11.82;56.44;96695.06;5036968;28;21024;-71
2023/04/02 00:50:33;;;;;;;3.43;0.80;;;;;;;11.82;56.58;96709.00;5055069;28;20926;-70
2023/04/02 00:52:59;;;;;;;0.90;0.77;;;;;;;11.71;57.00;96693.66;5057349;28;20449;-70
2023/04/02 00:55:34;;;;;;;1.10;0.60;;;;;;;11.82;56.68;96693.25;5046426;28;20630;-70
2023/04/02 00:58:01;;;;;;;1.10;0.60;;;;;;;11.81;56.46;96690.78;5051539;28;20432;-70
2023/04/02 01:00:32;;;;;;;1.83;0.67;;;;;;;11.76;56.69;96699.19;5042132;28;20423;-70
2023/04/02 01:03:16;;;;;;;1.47;0.67;;;;;;;11.72;56.86;96694.44;5056292;28;20446;-70
2023/04/02 01:05:44;;;;;;;0.90;0.60;;;;;;;11.76;56.44;96696.56;5049205;28;20437;-69
2023/04/02 01:08:30;;;;;;;1.20;0.70;;;;;;;11.74;56.95;96703.78;5055637;28;20421;-69
2023/04/02 01:11:14;;;;;;;0.90;0.60;;;;;;;11.82;56.47;96701.13;5045486;28;20430;-70
2023/04/02 01:14:03;;;;;;;0.90;0.60;;;;;;;11.75;56.54;96700.16;5042703;28;21109;-70
2023/04/02 01:16:31;;;;;;;0.80;0.50;;;;;;;11.70;56.97;96712.19;5049745;28;20425;-70
2023/04/02 01:19:32;;;;;;;1.00;0.60;;;;;;;11.69;56.69;96711.38;5040008;28;20426;-70
2023/04/02 01:22:20;;;;;;;1.00;0.60;;;;;;;11.76;56.67;96706.25;5047481;28;20903;-71
2023/04/02 01:24:46;;;;;;;1.63;0.80;;;;;;;11.74;56.36;96711.66;5047180;28;20441;-70
2023/04/02 01:27:16;;;;;;;1.30;0.60;;;;;;;11.74;56.58;96706.41;5057263;28;21133;-70
2023/04/02 01:29:48;;;;;;;2.60;0.80;;;;;;;11.82;56.80;96716.06;5046205;28;20197;-70
2023/04/02 01:32:16;;;;;;;1.10;0.60;;;;;;;11.81;56.47;96712.63;5036331;28;20481;-70
2023/04/02 01:34:46;;;;;;;2.40;0.70;;;;;;;11.80;56.63;96716.25;5033428;28;20477;-70
2023/04/02 01:37:31;;;;;;;1.30;0.60;;;;;;;11.53;57.26;96712.25;5044354;28;20429;-70
2023/04/02 01:40:05;;;;;;;1.27;0.80;;;;;;;11.73;56.60;96717.91;5048527;28;20585;-70
2023/04/02 01:42:51;;;;;;;1.57;0.70;;;;;;;11.71;56.69;96719.91;5052794;28;20453;-70
2023/04/02 01:45:18;;;;;;;0.97;0.60;;;;;;;11.70;56.60;96718.25;5053907;28;20425;-70
2023/04/02 01:47:44;;;;;;;0.90;0.70;;;;;;;11.71;56.85;96725.16;5047628;28;20445;-71
2023/04/02 01:50:21;;;;;;;1.00;0.63;;;;;;;11.81;56.57;96719.66;5035466;28;20794;-71
2023/04/02 01:52:52;;;;;;;1.10;0.63;;;;;;;11.67;56.79;96726.47;5043081;28;20453;-71
2023/04/02 01:55:27;;;;;;;1.43;0.60;;;;;;;11.74;56.72;96723.97;5045999;28;20853;-70
2023/04/02 01:57:53;;;;;;;0.80;0.60;;;;;;;11.77;56.62;96723.66;5034613;28;20433;-70
2023/04/02 02:00:20;;;;;;;1.30;0.70;;;;;;;11.80;56.60;96732.00;5043077;28;20426;-71
2023/04/02 02:02:48;;;;;;;1.00;0.60;;;;;;;11.81;55.98;96731.00;5022533;28;20241;-71
2023/04/02 02:05:15;;;;;;;6.53;0.80;;;;;;;11.87;56.36;96729.50;5050488;28;20918;-71
2023/04/02 02:07:41;;;;;;;1.20;0.60;;;;;;;11.88;56.04;96738.19;5034927;28;20422;-70
2023/04/02 02:10:13;;;;;;;0.90;0.50;;;;;;;11.94;56.42;96734.88;5046873;28;20426;-70
2023/04/02 02:12:40;;;;;;;1.17;0.60;;;;;;;11.96;55.75;96730.28;5046667;28;20211;-71
2023/04/02 02:15:18;;;;;;;2.40;0.80;;;;;;;11.99;55.55;96732.56;5045901;28;20590;-71
2023/04/02 02:17:43;;;;;;;0.93;0.70;;;;;;;11.88;55.81;96740.81;5041502;28;20965;-70
2023/04/02 02:20:10;;;;;;;0.90;0.70;;;;;;;11.93;55.94;96736.66;5035495;28;20446;-70
2023/04/02 02:22:38;;;;;;;1.83;0.60;;;;;;;11.92;56.38;96739.47;5045276;28;20239;-70
2023/04/02 02:25:26;;;;;;;1.30;0.90;;;;;;;12.03;56.42;96740.94;5044703;28;20415;-70
2023/04/02 02:28:07;;;;;;;2.30;0.70;;;;;;;12.02;56.38;96741.94;5048806;28;20429;-70
2023/04/02 02:30:36;;;;;;;0.80;0.60;;;;;;;11.90;55.98;96749.34;5062393;28;20433;-69
2023/04/02 02:33:02;;;;;;;1.30;0.70;;;;;;;11.79;56.54;96751.34;5055903;28;20453;-69
2023/04/02 02:35:33;;;;;;;1.60;0.60;;;;;;;11.74;56.54;96751.03;5058004;28;20482;-71
2023/04/02 02:38:24;;;;;;;1.43;0.73;;;;;;;11.83;56.80;96754.44;5034103;28;20187;-71
2023/04/02 02:40:53;;;;;;;2.03;0.90;;;;;;;11.88;56.95;96751.31;5052010;28;20441;-71
2023/04/02 02:43:18;;;;;;;1.67;0.80;;;;;;;11.95;56.73;96757.53;5055811;28;20457;-71
2023/04/02 02:45:45;;;;;;;1.10;0.90;;;;;;;11.95;56.54;96763.59;5049977;28;20992;-71
2023/04/02 02:48:14;;;;;;;0.90;0.63;;;;;;;11.97;56.44;96763.44;5043147;28;20182;-69
2023/04/02 02:50:40;;;;;;;2.27;0.90;;;;;;;12.00;56.48;96765.72;5050071;28;20422;-71
2023/04/02 02:53:15;;;;;;;0.97;0.77;;;;;;;11.98;56.49;96767.69;5032702;28;20449;-70
2023/04/02 02:55:41;;;;;;;1.50;0.70;;;;;;;12.05;56.56;96771.28;5051046;28;20471;-70
2023/04/02 02:58:11;;;;;;;1.00;0.70;;;;;;;12.05;56.16;96767.81;5042893;28;20422;-70
2023/04/02 03:00:37;;;;;;;1.30;0.90;;;;;;;12.10;56.55;96776.00;5029459;28;20584;-70
2023/04/02 03:03:11;;;;;;;2.30;0.83;;;;;;;12.10;56.50;96776.81;5060063;28;21028;-70
2023/04/02 03:05:38;;;;;;;0.90;0.73;;;;;;;12.14;56.15;96772.88;5037480;28;20435;-70
2023/04/02 03:08:05;;;;;;;2.70;0.80;;;;;;;12.16;56.21;96769.25;5067304;28;20421;-68
2023/04/02 03:10:38;;;;;;;0.90;0.70;;;;;;;12.16;56.69;96774.50;5040625;28;20453;-70
2023/04/02 03:13:14;;;;;;;0.90;0.80;;;;;;;12.19;56.81;96785.47;5053806;28;20453;-70
2023/04/02 03:15:50;;;;;;;1.10;0.80;;;;;;;12.24;56.33;96779.72;5032359;28;21032;-70
2023/04/02 03:18:18;;;;;;;1.10;0.90;;;;;;;12.25;56.64;96789.22;5047097;28;20463;-70
2023/04/02 03:20:59;;;;;;;1.20;1.10;;;;;;;12.24;56.30;96788.41;5044585;28;20433;-69
2023/04/02 03:23:32;;;;;;;3.17;0.87;;;;;;;12.29;56.35;96793.97;5043883;28;20429;-71
2023/04/02 03:26:03;;;;;;;1.00;0.80;;;;;;;12.29;56.16;96788.69;5043053;28;20461;-71
2023/04/02 03:28:32;;;;;;;6.37;0.80;;;;;;;12.29;56.44;96795.78;5043146;28;20526;-70
2023/04/02 03:31:07;;;;;;;1.10;0.83;;;;;;;12.29;56.26;96796.59;5045664;28;20456;-70
2023/04/02 03:33:37;;;;;;;1.37;1.00;;;;;;;12.23;56.31;96806.97;5043133;28;20802;-69
2023/04/02 03:36:29;;;;;;;1.00;0.80;;;;;;;12.18;56.12;96804.84;5030372;28;20456;-70
2023/04/02 03:39:17;;;;;;;1.50;0.80;;;;;;;12.19;56.38;96810.94;5036957;28;20433;-71
2023/04/02 03:42:06;;;;;;;0.90;0.70;;;;;;;12.21;56.84;96808.97;5043138;28;20445;-71
2023/04/02 03:45:04;;;;;;;0.90;0.70;;;;;;;12.16;56.67;96817.34;5054438;28;20516;-71
2023/04/02 03:47:33;;;;;;;3.17;0.80;;;;;;;12.20;56.63;96816.03;5042105;28;20442;-71
2023/04/02 03:50:36;;;;;;;1.53;1.00;;;;;;;12.21;56.50;96816.84;5048064;28;20465;-71
2023/04/02 03:53:02;;;;;;;1.17;0.80;;;;;;;12.23;56.44;96822.72;5044649;28;20457;-70
2023/04/02 03:55:30;;;;;;;2.17;0.83;;;;;;;12.25;56.65;96826.00;5036307;28;20867;-71
2023/04/02 03:58:00;;;;;;;1.07;0.70;;;;;;;12.30;56.27;96834.22;5038001;28;20426;-70
2023/04/02 04:00:35;;;;;;;1.30;0.73;;;;;;;12.26;56.50;96836.38;5046158;28;20425;-71
2023/04/02 04:03:08;;;;;;;1.00;0.80;;;;;;;12.25;56.38;96829.47;5047814;28;20472;-72
2023/04/02 04:05:36;;;;;;;0.90;0.70;;;;;;;12.27;56.38;96839.78;5051936;28;20494;-70
2023/04/02 04:08:07;;;;;;;1.23;0.70;;;;;;;12.27;56.22;96835.38;5048029;28;20525;-70
2023/04/02 04:10:33;;;;;;;2.60;0.80;;;;;;;12.19;56.34;96839.84;5049171;28;20487;-70
2023/04/02 04:13:10;;;;;;;2.50;0.70;;;;;;;12.18;56.56;96841.63;5049295;28;20440;-71
2023/04/02 04:15:51;;;;;;;1.10;0.60;;;;;;;12.07;56.81;96842.03;5049339;28;20989;-71
2023/04/02 04:19:01;;;;;;;0.90;0.70;;;;;;;12.02;56.71;96842.53;5039412;28;20964;-71
2023/04/02 04:21:36;;;;;;;1.30;0.80;;;;;;;12.09;56.63;96850.56;5042738;28;21002;-70
2023/04/02 04:24:04;;;;;;;1.10;0.60;;;;;;;12.02;56.53;96853.03;5043875;28;21049;-70
2023/04/02 04:26:52;;;;;;;1.07;0.70;;;;;;;12.07;57.13;96857.78;5054075;28;20441;-70
2023/04/02 04:29:39;;;;;;;1.20;0.70;;;;;;;12.08;56.87;96860.25;5046797;28;20849;-70
2023/04/02 04:32:15;;;;;;;3.13;0.80;;;;;;;12.10;57.21;96860.06;5046412;28;20934;-70
2023/04/02 04:34:45;;;;;;;1.37;0.70;;;;;;;12.11;57.61;96862.53;5045311;28;20460;-70
2023/04/02 04:37:20;;;;;;;0.90;0.70;;;;;;;12.17;56.91;96866.28;5046198;28;20433;-71
2023/04/02 04:39:56;;;;;;;1.00;0.60;;;;;;;12.16;56.63;96866.44;5044078;28;20440;-71
2023/04/02 04:42:28;;;;;;;1.00;0.60;;;;;;;12.13;57.27;96871.06;5041431;28;20456;-71
2023/04/02 04:45:07;;;;;;;1.53;0.87;;;;;;;12.12;56.98;96872.03;5041629;28;20441;-68
2023/04/02 04:47:35;;;;;;;1.37;0.70;;;;;;;12.10;57.15;96873.22;5039301;28;20516;-71
2023/04/02 04:50:12;;;;;;;1.00;0.90;;;;;;;12.16;56.74;96874.34;5045445;28;20896;-71
2023/04/02 04:52:39;;;;;;;1.50;0.70;;;;;;;12.21;56.99;96878.09;5047293;28;20459;-71
2023/04/02 04:55:25;;;;;;;1.67;0.77;;;;;;;12.22;56.97;96884.16;5045828;28;20527;-71
2023/04/02 04:57:55;;;;;;;1.37;0.77;;;;;;;12.24;56.95;96890.88;5045975;28;20437;-70
2023/04/02 05:00:50;;;;;;;2.10;0.70;;;;;;;12.23;56.33;96885.78;5047711;28;20620;-70
2023/04/02 05:03:54;;;;;;;1.57;0.80;;;;;;;12.19;56.32;96889.75;5043642;28;20547;-70
2023/04/02 05:06:33;;;;;;;1.87;0.70;;;;;;;12.23;56.34;96889.25;5021882;28;20507;-71
2023/04/02 05:09:04;;;;;;;1.10;0.80;;;;;;;12.24;56.42;96893.50;5025667;28;20437;-69
2023/04/02 05:11:38;;;;;;;1.00;0.80;;;;;;;12.24;56.66;96893.50;5043777;28;20538;-70
2023/04/02 05:14:07;;;;;;;1.20;0.63;;;;;;;12.25;56.55;96894.31;5048380;28;20465;-71
2023/04/02 05:16:44;;;;;;;1.00;0.80;;;;;;;12.18;56.36;96893.38;5039619;28;20453;-71
2023/04/02 05:19:22;;;;;;;0.80;0.63;;;;;;;12.23;56.63;96891.03;5054302;28;20427;-71
2023/04/02 05:21:52;;;;;;;4.50;0.90;;;;;;;12.22;56.43;96907.81;5048710;28;20461;-70
2023/04/02 05:24:47;;;;;;;1.30;0.70;;;;;;;12.24;56.68;96903.19;5022241;28;20939;-70
2023/04/02 05:27:39;;;;;;;3.70;0.80;;;;;;;12.24;56.47;96906.66;5043324;28;20446;-71
2023/04/02 05:30:30;;;;;;;1.10;0.70;;;;;;;12.25;56.61;96910.09;5045475;28;20418;-71
2023/04/02 05:33:00;;;;;;;1.10;0.67;;;;;;;12.18;56.79;96911.75;5031265;28;20462;-70
2023/04/02 05:35:31;;;;;;;1.23;0.70;;;;;;;12.19;57.23;96916.84;5031942;28;20465;-70
2023/04/02 05:37:57;;;;;;;1.10;0.77;;;;;;;12.18;56.76;96919.66;5054076;28;20768;-70
2023/04/02 05:40:29;;;;;;;1.50;0.90;;;;;;;12.19;57.14;96916.03;5042485;28;20433;-72
2023/04/02 05:42:56;;;;;;;1.60;0.90;;;;;;;12.24;57.28;96924.22;5039206;28;20506;-71
2023/04/02 05:45:36;;;;;;;2.40;0.80;;;;;;;12.29;56.85;96922.72;5052290;28;20438;-69
2023/04/02 05:48:17;;;;;;;1.00;0.70;;;;;;;12.27;57.01;96929.13;5032928;28;20453;-71
2023/04/02 05:50:55;;;;;;;1.30;0.87;;;;;;;12.27;56.99;96927.34;5038294;28;20455;-70
2023/04/02 05:53:33;;;;;;;1.40;0.93;;;;;;;12.27;57.22;96929.13;5046544;28;20544;-70
2023/04/02 05:56:01;;;;;;;1.30;0.90;;;;;;;12.27;57.28;96934.38;5051976;28;20428;-70
2023/04/02 05:59:00;;;;;;;2.20;1.10;;;;;;;12.29;57.36;96940.28;5049087;28;20438;-70
2023/04/02 06:01:39;;;;;;;1.10;1.00;;;;;;;12.37;56.59;96939.44;5029205;28;20438;-70
2023/04/02 06:04:27;;;;;;;1.47;0.90;;;;;;;12.35;57.44;96946.69;5042928;28;20426;-71
2023/04/02 06:07:04;;;;;;;8.10;4.80;;;;;;;12.33;57.39;96944.22;5061140;28;20807;-71
2023/04/02 06:09:55;;;;;;;3.87;2.60;;;;;;;12.33;57.31;96941.59;5052558;28;20510;-69
2023/04/02 06:12:32;;;;;;;3.63;1.33;;;;;;;12.24;57.11;96956.56;5044448;28;20816;-72
2023/04/02 06:14:57;;;;;;;1.60;1.07;;;;;;;12.23;57.39;96959.34;5059681;28;20475;-70
2023/04/02 06:17:23;;;;;;;1.63;0.87;;;;;;;12.19;57.46;96963.31;5046145;28;20445;-70
2023/04/02 06:19:48;;;;;;;1.10;0.93;;;;;;;12.25;57.53;96963.47;5057463;28;20200;-70
2023/04/02 06:22:21;;;;;;;1.30;0.90;;;;;;;12.31;56.77;96975.09;5053804;28;20221;-69
2023/04/02 06:24:52;;;;;;;1.90;1.00;;;;;;;12.34;57.05;96969.53;5055854;28;20656;-70
2023/04/02 06:27:19;;;;;;;1.17;1.00;;;;;;;12.43;57.17;96975.53;5049949;28;20467;-71
2023/04/02 06:29:46;;;;;;;4.03;1.17;;;;;;;12.42;57.04;96972.13;5050576;28;20433;-71
2023/04/02 06:32:12;;;;;;;1.83;1.10;;;;;;;12.44;57.40;96978.03;5045550;28;20457;-70
2023/04/02 06:34:39;;;;;;;2.40;1.00;;;;;;;12.46;57.00;96980.47;5046309;28;20898;-71
2023/04/02 06:37:31;;;;;;;0.97;0.73;;;;;;;12.48;56.64;96978.50;5050741;28;20677;-71
2023/04/02 06:39:57;;;;;;;1.70;0.90;;;;;;;12.55;56.58;96981.28;5044598;28;20838;-71
2023/04/02 06:42:43;;;;;;;1.20;0.80;;;;;;;12.56;56.51;96983.72;5051555;28;20453;-72
2023/04/02 06:45:21;;;;;;;2.50;1.07;;;;;;;12.63;56.46;96996.19;5038017;28;20433;-71
2023/04/02 06:47:49;;;;;;;1.17;0.90;;;;;;;12.71;56.16;96989.09;5047587;28;20436;-71
2023/04/02 06:50:45;;;;;;;1.80;1.00;;;;;;;12.74;56.38;96996.63;5047551;28;20532;-72
2023/04/02 06:53:42;;;;;;;1.33;0.80;;;;;;;12.77;55.78;97007.78;5048770;28;20451;-71
2023/04/02 06:56:21;;;;;;;1.10;0.90;;;;;;;12.80;55.71;97012.72;5035994;28;20452;-71
2023/04/02 06:58:46;;;;;;;1.83;1.20;;;;;;;12.77;55.93;97013.88;5044524;28;20429;-70
2023/04/02 07:01:17;;;;;;;1.57;1.00;;;;;;;12.79;56.16;97021.59;5049214;28;20456;-70
2023/04/02 07:03:42;;;;;;;2.03;1.13;;;;;;;12.77;56.05;97026.19;5057971;28;20226;-72
2023/04/02 07:06:14;;;;;;;1.47;1.03;;;;;;;12.82;56.06;97027.31;5051541;28;20869;-71
2023/04/02 07:08:39;;;;;;;1.70;0.90;;;;;;;12.88;56.01;97031.91;5056369;28;20215;-71
2023/04/02 07:11:07;;;;;;;1.57;1.10;;;;;;;12.87;56.18;97039.97;5050935;28;20465;-72
2023/04/02 07:13:33;;;;;;;2.20;0.93;;;;;;;12.90;56.47;97040.47;5048354;28;20195;-71
2023/04/02 07:15:58;;;;;;;1.57;1.00;;;;;;;12.93;56.03;97041.91;5056734;28;20464;-70
2023/04/02 07:18:32;;;;;;;1.20;0.90;;;;;;;12.95;55.61;97047.00;5040802;28;20192;-71
2023/04/02 07:20:58;;;;;;;1.87;1.00;;;;;;;13.01;55.73;97047.13;5054233;28;20847;-71
2023/04/02 07:23:23;;;;;;;1.50;1.00;;;;;;;13.02;55.19;97053.22;5054519;28;20456;-70
2023/04/02 07:25:50;;;;;;;4.33;1.30;;;;;;;13.10;55.30;97055.00;5057279;28;20671;-70
2023/04/02 07:28:16;;;;;;;2.80;1.10;;;;;;;13.08;54.69;97063.06;5047199;28;20652;-70
2023/04/02 07:30:42;;;;;;;1.30;1.10;;;;;;;13.13;54.45;97065.16;5041212;28;20441;-70
2023/04/02 07:33:12;;;;;;;1.20;1.00;;;;;;;13.11;54.84;97073.25;5047549;28;20496;-69
2023/04/02 07:35:38;;;;;;;1.90;1.10;;;;;;;13.15;54.79;97074.56;5030825;28;20251;-70
2023/04/02 07:38:03;;;;;;;1.40;0.87;;;;;;;13.15;54.44;97082.44;5043770;28;20569;-70
2023/04/02 07:40:28;;;;;;;1.37;0.90;;;;;;;13.18;54.81;97082.06;5044185;28;20315;-70
2023/04/02 07:42:54;;;;;;;1.20;0.77;;;;;;;13.10;54.13;97082.13;5052485;28;20206;-70
2023/04/02 07:45:19;;;;;;;3.60;0.97;;;;;;;13.16;54.52;97083.25;5057770;28;20194;-70
2023/04/02 07:47:45;;;;;;;1.73;0.93;;;;;;;13.18;54.37;97089.16;5049306;28;20692;-70
2023/04/02 07:50:10;;;;;;;1.20;0.90;;;;;;;13.21;54.43;97088.84;5044896;28;20194;-69
2023/04/02 07:52:41;;;;;;;1.50;0.93;;;;;;;13.24;54.90;97092.91;5056772;28;20211;-70
2023/04/02 07:55:11;;;;;;;1.30;0.90;;;;;;;13.29;54.64;97099.31;5054562;28;20226;-71
2023/04/02 07:57:48;;;;;;;1.70;0.97;;;;;;;13.27;54.49;97098.66;5047071;28;20457;-70
2023/04/02 08:00:14;;;;;;;2.10;1.00;;;;;;;13.30;54.39;97098.31;5053574;28;20790;-71
2023/04/02 08:02:39;;;;;;;1.83;1.00;;;;;;;13.36;54.08;97113.41;5039934;28;21203;-70
2023/04/02 08:05:05;;;;;;;1.27;0.90;;;;;;;13.39;54.22;97112.25;5042283;28;20423;-70
2023/04/02 08:07:31;;;;;;;1.30;0.70;;;;;;;13.46;53.90;97107.97;5045445;28;20248;-70
2023/04/02 08:09:56;;;;;;;1.93;0.97;;;;;;;13.46;53.63;97117.69;5049922;28;20910;-71
2023/04/02 08:12:22;;;;;;;1.67;1.10;;;;;;;13.45;53.50;97121.31;5057314;28;20336;-70
2023/04/02 08:14:47;;;;;;;1.83;1.03;;;;;;;13.49;53.94;97122.59;5055871;28;20290;-71
2023/04/02 08:17:12;;;;;;;3.67;0.90;;;;;;;13.53;53.63;97126.53;5055806;28;20352;-69
2023/04/02 08:19:38;;;;;;;1.40;0.90;;;;;;;13.59;53.56;97123.22;5047726;28;20200;-71
2023/04/02 08:22:03;;;;;;;0.90;0.70;;;;;;;13.60;53.19;97124.84;5044918;28;20206;-72
2023/04/02 08:24:29;;;;;;;2.80;1.20;;;;;;;13.66;52.91;97131.25;5049294;28;20632;-70
2023/04/02 08:26:55;;;;;;;1.33;0.90;;;;;;;13.69;53.45;97143.22;5051877;28;20195;-71
2023/04/02 08:29:21;;;;;;;1.00;0.70;;;;;;;13.75;53.54;97138.09;5048729;28;20818;-70
2023/04/02 08:31:46;;;;;;;1.67;0.87;;;;;;;13.77;53.32;97145.81;5048067;28;20469;-70
2023/04/02 08:34:12;;;;;;;1.07;0.93;;;;;;;13.78;53.45;97150.09;5054806;28;20217;-70
2023/04/02 08:36:39;;;;;;;2.07;1.03;;;;;;;13.75;53.36;97151.25;5053517;28;20737;-70
2023/04/02 08:39:09;;;;;;;1.00;0.90;;;;;;;13.80;53.63;97150.72;5047424;28;20191;-71
2023/04/02 08:41:44;;;;;;;1.30;1.00;;;;;;;13.83;53.34;97153.03;5047405;28;21157;-70
2023/04/02 08:44:19;;;;;;;1.37;1.20;;;;;;;13.87;53.19;97156.94;5047171;28;20499;-71
2023/04/02 08:46:50;;;;;;;1.73;0.90;;;;;;;13.92;53.47;97159.88;5030047;28;20535;-71
2023/04/02 08:49:21;;;;;;;2.50;2.20;;;;;;;13.96;53.16;97163.81;5026565;28;20491;-71
2023/04/02 08:51:47;;;;;;;2.07;1.07;;;;;;;13.98;53.27;97159.19;5047668;28;20457;-71
2023/04/02 08:54:24;;;;;;;2.10;0.90;;;;;;;13.96;52.76;97169.06;5031932;28;20469;-73
2023/04/02 08:57:06;;;;;;;1.50;0.90;;;;;;;14.02;52.73;97164.09;5049561;28;20444;-73
2023/04/02 08:59:34;;;;;;;2.17;0.80;;;;;;;14.05;52.56;97171.66;5040383;28;20524;-71
2023/04/02 09:02:24;;;;;;;2.70;1.00;;;;;;;14.05;52.33;97176.91;5048530;28;20453;-71
2023/04/02 09:04:50;;;;;;;1.20;0.73;;;;;;;14.10;52.22;97182.50;5042580;28;20433;-71
2023/04/02 09:07:16;;;;;;;5.00;0.70;;;;;;;14.11;52.18;97176.22;5043486;28;20441;-72
2023/04/02 09:09:42;;;;;;;9.33;6.30;;;;;;;14.16;52.43;97187.06;5051519;28;20563;-73
2023/04/02 09:12:19;;;;;;;9.37;7.20;;;;;;;14.22;52.78;97189.00;5046641;28;20462;-71
2023/04/02 09:14:57;;;;;;;5.00;4.50;;;;;;;14.25;52.30;97191.25;5051258;28;20465;-71
2023/04/02 09:17:25;;;;;;;3.10;2.80;;;;;;;14.34;52.07;97188.59;5046026;28;20461;-72
2023/04/02 09:20:01;;;;;;;2.03;1.83;;;;;;;14.39;52.13;97199.41;5051909;28;20444;-72
2023/04/02 09:22:28;;;;;;;4.70;1.40;;;;;;;14.36;52.11;97200.59;5053600;28;20457;-71
2023/04/02 09:24:56;;;;;;;5.03;3.03;;;;;;;14.26;52.46;97195.53;5048496;28;20425;-70
2023/04/02 09:27:27;;;;;;;1.60;1.40;;;;;;;14.31;52.65;97208.19;5047842;28;20457;-71
2023/04/02 09:29:59;;;;;;;1.37;1.27;;;;;;;14.34;52.66;97209.66;5048203;28;20425;-71
2023/04/02 09:32:38;;;;;;;1.63;1.40;;;;;;;14.34;52.55;97218.38;5049849;28;20508;-71
2023/04/02 09:35:28;;;;;;;2.20;1.30;;;;;;;14.34;52.72;97214.94;5046783;28;20468;-71
2023/04/02 09:38:10;;;;;;;2.90;1.40;;;;;;;14.35;52.68;97227.13;5042496;28;20441;-71
2023/04/02 09:40:52;;;;;;;2.30;1.00;;;;;;;14.34;52.92;97228.13;5042225;28;20930;-71
2023/04/02 09:43:31;;;;;;;1.43;1.30;;;;;;;14.27;52.94;97233.28;5050014;28;20804;-71
2023/04/02 09:46:17;;;;;;;1.87;1.27;;;;;;;14.29;52.64;97234.75;5050658;28;20439;-71
2023/04/02 09:48:53;;;;;;;1.40;1.20;;;;;;;14.25;52.58;97238.72;5024121;28;20465;-71
2023/04/02 09:51:24;;;;;;;1.97;1.10;;;;;;;14.21;52.55;97240.06;5040650;28;20523;-71
2023/04/02 09:54:02;;;;;;;2.50;1.83;;;;;;;14.13;52.38;97237.47;5054138;28;20433;-70
2023/04/02 09:56:29;;;;;;;1.67;1.27;;;;;;;14.07;53.21;97240.81;5047687;28;20595;-71
2023/04/02 09:59:17;;;;;;;2.73;2.10;;;;;;;14.05;53.12;97245.44;5039466;28;20853;-71
2023/04/02 10:01:46;;;;;;;2.23;1.47;;;;;;;14.03;53.17;97253.53;5048108;28;20457;-71
2023/04/02 10:04:48;;;;;;;1.47;1.27;;;;;;;13.99;53.47;97254.84;5056698;28;20452;-71
2023/04/02 10:07:40;;;;;;;1.40;1.13;;;;;;;13.96;53.55;97261.28;5039609;28;20437;-71
2023/04/02 10:10:16;;;;;;;1.30;1.10;;;;;;;13.96;53.86;97258.66;5046735;28;20433;-73
2023/04/02 10:12:42;;;;;;;2.60;1.40;;;;;;;13.95;53.75;97264.91;5044506;28;20452;-73
2023/04/02 10:15:14;;;;;;;1.60;1.50;;;;;;;13.93;53.85;97259.00;5044129;28;20473;-73
2023/04/02 10:17:39;;;;;;;2.47;1.43;;;;;;;13.90;54.01;97269.06;5047111;28;20789;-72
2023/04/02 10:20:21;;;;;;;1.90;1.57;;;;;;;13.87;54.32;97269.41;5051111;28;20434;-73
2023/04/02 10:22:46;;;;;;;2.77;1.70;;;;;;;13.87;54.41;97272.03;5040649;28;20758;-73
2023/04/02 10:25:13;;;;;;;2.10;1.50;;;;;;;13.89;54.39;97272.69;5047293;28;20444;-72
2023/04/02 10:28:07;;;;;;;3.00;1.27;;;;;;;13.85;54.29;97274.84;5052136;28;20251;-73
2023/04/02 10:30:56;;;;;;;1.43;1.07;;;;;;;13.82;54.06;97275.19;5042078;28;20446;-73
2023/04/02 10:33:29;;;;;;;2.23;1.30;;;;;;;13.76;54.54;97281.13;5055756;28;20452;-72
2023/04/02 10:36:23;;;;;;;1.30;1.20;;;;;;;13.81;54.32;97286.72;5040126;28;20473;-71
2023/04/02 10:38:53;;;;;;;1.80;1.03;;;;;;;13.82;54.39;97285.72;5052661;28;20435;-72
2023/04/02 10:41:30;;;;;;;1.50;1.10;;;;;;;13.82;54.62;97291.00;5036307;28;20453;-71
2023/04/02 10:44:04;;;;;;;4.60;1.67;;;;;;;13.79;54.36;97289.53;5036966;28;20433;-72
2023/04/02 10:46:37;;;;;;;1.40;1.23;;;;;;;13.85;54.44;97295.91;5044406;28;20450;-74
2023/04/02 10:49:21;;;;;;;1.90;1.13;;;;;;;13.87;54.15;97301.81;5041307;28;20494;-73
2023/04/02 10:51:57;;;;;;;2.13;1.60;;;;;;;13.88;54.11;97302.66;5040620;28;20513;-73
2023/04/02 10:54:41;;;;;;;1.70;1.00;;;;;;;13.89;53.99;97307.75;5039192;28;20512;-72
2023/04/02 10:57:18;;;;;;;1.50;1.10;;;;;;;13.90;54.20;97311.22;5041085;28;20423;-73
2023/04/02 10:59:53;;;;;;;2.90;1.30;;;;;;;13.97;54.15;97313.00;5044631;28;20429;-73
2023/04/02 11:02:32;;;;;;;4.60;1.40;;;;;;;13.97;53.86;97312.16;5052889;28;20990;-72
2023/04/02 11:05:01;;;;;;;1.63;1.00;;;;;;;13.92;53.69;97312.69;5036073;28;20532;-72
2023/04/02 11:07:28;;;;;;;1.50;1.03;;;;;;;13.95;53.69;97314.13;5036849;28;20509;-72
2023/04/02 11:09:55;;;;;;;1.30;1.20;;;;;;;13.98;53.48;97322.53;5035326;28;20440;-71
2023/04/02 11:12:45;;;;;;;2.80;1.80;;;;;;;13.97;53.56;97328.81;5042813;28;20474;-73
2023/04/02 11:15:16;;;;;;;1.23;0.90;;;;;;;14.02;53.55;97328.28;5040344;28;20461;-72
2023/04/02 11:17:43;;;;;;;2.23;0.93;;;;;;;14.07;53.44;97325.13;5041540;28;20449;-72
2023/04/02 11:20:46;;;;;;;1.13;1.00;;;;;;;14.07;53.73;97320.66;5053559;28;20428;-73
2023/04/02 11:23:12;;;;;;;1.27;0.80;;;;;;;14.17;53.61;97325.75;5036924;28;21018;-72
2023/04/02 11:25:38;;;;;;;1.80;0.90;;;;;;;14.19;53.21;97329.03;5033895;28;20453;-72
2023/04/02 11:28:25;;;;;;;1.70;1.27;;;;;;;14.16;52.95;97342.53;5038254;28;20437;-72
2023/04/02 11:30:50;;;;;;;2.57;2.33;;;;;;;14.11;52.70;97339.63;5042912;28;20449;-72
2023/04/02 11:33:38;;;;;;;1.40;1.30;;;;;;;14.14;52.79;97333.97;5039532;28;20449;-72
2023/04/02 11:36:42;;;;;;;1.20;1.00;;;;;;;14.15;52.90;97340.91;5041441;28;20690;-72
2023/04/02 11:39:09;;;;;;;3.17;1.50;;;;;;;14.16;52.87;97339.91;5041857;28;20425;-73
2023/04/02 11:42:01;;;;;;;1.00;0.90;;;;;;;14.24;53.02;97346.97;5044688;28;20965;-73
2023/04/02 11:44:26;;;;;;;1.87;0.93;;;;;;;14.28;52.73;97346.44;5051454;28;20492;-72
2023/04/02 11:47:16;;;;;;;1.63;0.70;;;;;;;14.33;52.95;97350.38;5044953;28;20441;-72
2023/04/02 11:49:53;;;;;;;1.60;1.27;;;;;;;14.29;52.19;97350.72;5036552;28;20750;-72
2023/04/02 11:52:25;;;;;;;2.40;2.20;;;;;;;14.34;52.03;97349.41;5039312;28;20460;-73
2023/04/02 11:55:00;;;;;;;3.03;1.30;;;;;;;14.37;52.39;97347.22;5048009;28;20500;-72
2023/04/02 11:57:42;;;;;;;1.20;1.10;;;;;;;14.43;52.68;97353.63;5040849;28;20426;-72
2023/04/02 12:00:20;;;;;;;1.53;0.70;;;;;;;14.44;51.77;97352.63;5012206;28;20430;-72
2023/04/02 12:02:58;;;;;;;0.90;0.70;;;;;;;14.49;51.73;97355.56;5032803;28;20454;-72
2023/04/02 12:05:30;;;;;;;1.40;0.80;;;;;;;14.58;51.53;97356.34;5040456;28;20418;-73
2023/04/02 12:08:15;;;;;;;1.87;1.00;;;;;;;14.68;51.68;97359.59;5036345;28;20433;-73